sensor_id;sensor_type;location;lat;lon;timestamp;P1;durP1;ratioP1;P2;durP2;ratioP2
61091;SDS011;46975;51.898;11.444;2022-09-01T00:01:49;2.00;;;0.90;;
61091;SDS011;46975;51.898;11.444;2022-09-01T00:04:21;1.50;;;0.80;;
61091;SDS011;46975;51.898;11.444;2022-09-01T00:06:52;2.47;;;0.93;;
61091;SDS011;46975;51.898;11.444;2022-09-01T00:09:20;2.22;;;1.10;;
61091;SDS011;46975;51.898;11.444;2022-09-01T00:11:49;1.70;;;0.80;;
61091;SDS011;46975;51.898;11.444;2022-09-01T00:14:18;1.77;;;0.95;;
61091;SDS011;46975;51.898;11.444;2022-09-01T00:16:46;1.13;;;0.65;;
61091;SDS011;46975;51.898;11.444;2022-09-01T00:19:12;2.78;;;0.70;;
61091;SDS011;46975;51.898;11.444;2022-09-01T00:21:39;1.23;;;0.55;;
61091;SDS011;46975;51.898;11.444;2022-09-01T00:24:07;0.65;;;0.60;;
61091;SDS011;46975;51.898;11.444;2022-09-01T00:26:33;2.60;;;0.88;;
61091;SDS011;46975;51.898;11.444;2022-09-01T00:28:59;1.38;;;0.80;;
61091;SDS011;46975;51.898;11.444;2022-09-01T00:31:25;2.00;;;1.42;;
61091;SDS011;46975;51.898;11.444;2022-09-01T00:33:51;0.95;;;0.95;;
61091;SDS011;46975;51.898;11.444;2022-09-01T00:36:17;2.00;;;0.82;;
61091;SDS011;46975;51.898;11.444;2022-09-01T00:38:44;1.50;;;1.10;;
61091;SDS011;46975;51.898;11.444;2022-09-01T00:41:10;0.80;;;0.77;;
61091;SDS011;46975;51.898;11.444;2022-09-01T00:46:27;0.90;;;0.75;;
61091;SDS011;46975;51.898;11.444;2022-09-01T00:48:58;3.70;;;1.00;;
61091;SDS011;46975;51.898;11.444;2022-09-01T00:51:26;1.70;;;0.90;;
61091;SDS011;46975;51.898;11.444;2022-09-01T00:53:53;1.27;;;0.90;;
61091;SDS011;46975;51.898;11.444;2022-09-01T00:56:21;0.82;;;0.70;;
61091;SDS011;46975;51.898;11.444;2022-09-01T00:58:47;1.23;;;0.73;;
61091;SDS011;46975;51.898;11.444;2022-09-01T01:01:13;1.65;;;0.85;;
61091;SDS011;46975;51.898;11.444;2022-09-01T01:03:39;3.67;;;0.65;;
61091;SDS011;46975;51.898;11.444;2022-09-01T01:06:09;3.42;;;1.00;;
61091;SDS011;46975;51.898;11.444;2022-09-01T01:08:37;1.30;;;1.15;;
61091;SDS011;46975;51.898;11.444;2022-09-01T01:11:08;1.90;;;1.17;;
61091;SDS011;46975;51.898;11.444;2022-09-01T01:16:23;1.17;;;0.80;;
61091;SDS011;46975;51.898;11.444;2022-09-01T01:18:51;2.83;;;0.68;;
61091;SDS011;46975;51.898;11.444;2022-09-01T01:21:25;4.05;;;1.08;;
61091;SDS011;46975;51.898;11.444;2022-09-01T01:24:25;1.23;;;1.13;;
61091;SDS011;46975;51.898;11.444;2022-09-01T01:26:53;11.07;;;1.83;;
61091;SDS011;46975;51.898;11.444;2022-09-01T01:29:22;2.30;;;1.30;;
61091;SDS011;46975;51.898;11.444;2022-09-01T01:31:49;1.45;;;1.10;;
61091;SDS011;46975;51.898;11.444;2022-09-01T01:34:17;3.00;;;1.33;;
61091;SDS011;46975;51.898;11.444;2022-09-01T01:36:43;3.00;;;0.82;;
61091;SDS011;46975;51.898;11.444;2022-09-01T01:39:11;2.15;;;1.00;;
61091;SDS011;46975;51.898;11.444;2022-09-01T01:41:43;1.85;;;1.08;;
61091;SDS011;46975;51.898;11.444;2022-09-01T01:44:13;3.50;;;1.10;;
61091;SDS011;46975;51.898;11.444;2022-09-01T01:46:42;1.55;;;0.80;;
61091;SDS011;46975;51.898;11.444;2022-09-01T01:49:14;4.03;;;1.30;;
61091;SDS011;46975;51.898;11.444;2022-09-01T01:51:48;4.07;;;1.38;;
61091;SDS011;46975;51.898;11.444;2022-09-01T01:54:22;1.98;;;1.15;;
61091;SDS011;46975;51.898;11.444;2022-09-01T01:56:49;4.30;;;1.00;;
61091;SDS011;46975;51.898;11.444;2022-09-01T01:59:15;6.25;;;1.80;;
61091;SDS011;46975;51.898;11.444;2022-09-01T02:01:43;1.20;;;1.00;;
61091;SDS011;46975;51.898;11.444;2022-09-01T02:04:13;2.10;;;1.40;;
61091;SDS011;46975;51.898;11.444;2022-09-01T02:06:40;3.58;;;1.33;;
61091;SDS011;46975;51.898;11.444;2022-09-01T02:09:09;1.30;;;1.17;;
61091;SDS011;46975;51.898;11.444;2022-09-01T02:11:36;2.25;;;1.38;;
61091;SDS011;46975;51.898;11.444;2022-09-01T02:14:02;1.80;;;1.00;;
61091;SDS011;46975;51.898;11.444;2022-09-01T02:16:30;2.35;;;1.42;;
61091;SDS011;46975;51.898;11.444;2022-09-01T02:18:57;2.53;;;1.65;;
61091;SDS011;46975;51.898;11.444;2022-09-01T02:21:24;2.88;;;1.70;;
61091;SDS011;46975;51.898;11.444;2022-09-01T02:24:01;2.50;;;1.25;;
61091;SDS011;46975;51.898;11.444;2022-09-01T02:26:33;3.42;;;1.40;;
61091;SDS011;46975;51.898;11.444;2022-09-01T02:29:04;5.38;;;1.25;;
61091;SDS011;46975;51.898;11.444;2022-09-01T02:31:34;2.75;;;1.30;;
61091;SDS011;46975;51.898;11.444;2022-09-01T02:34:03;2.20;;;1.60;;
61091;SDS011;46975;51.898;11.444;2022-09-01T02:36:30;2.55;;;1.20;;
61091;SDS011;46975;51.898;11.444;2022-09-01T02:39:02;3.17;;;1.00;;
61091;SDS011;46975;51.898;11.444;2022-09-01T02:41:28;2.45;;;0.90;;
61091;SDS011;46975;51.898;11.444;2022-09-01T02:43:54;2.65;;;1.48;;
61091;SDS011;46975;51.898;11.444;2022-09-01T02:46:19;1.90;;;1.25;;
61091;SDS011;46975;51.898;11.444;2022-09-01T02:48:47;1.80;;;1.20;;
61091;SDS011;46975;51.898;11.444;2022-09-01T02:51:17;1.48;;;1.27;;
61091;SDS011;46975;51.898;11.444;2022-09-01T02:53:44;1.52;;;0.95;;
61091;SDS011;46975;51.898;11.444;2022-09-01T02:56:17;3.22;;;1.33;;
61091;SDS011;46975;51.898;11.444;2022-09-01T02:58:47;1.67;;;1.42;;
61091;SDS011;46975;51.898;11.444;2022-09-01T03:03:49;2.67;;;1.30;;
61091;SDS011;46975;51.898;11.444;2022-09-01T03:06:17;2.50;;;1.50;;
61091;SDS011;46975;51.898;11.444;2022-09-01T03:08:45;3.05;;;1.75;;
61091;SDS011;46975;51.898;11.444;2022-09-01T03:11:12;3.35;;;1.60;;
61091;SDS011;46975;51.898;11.444;2022-09-01T03:13:38;2.22;;;1.90;;
61091;SDS011;46975;51.898;11.444;2022-09-01T03:16:05;3.20;;;1.33;;
61091;SDS011;46975;51.898;11.444;2022-09-01T03:18:32;3.67;;;1.80;;
61091;SDS011;46975;51.898;11.444;2022-09-01T03:20:59;1.40;;;1.30;;
61091;SDS011;46975;51.898;11.444;2022-09-01T03:23:26;1.40;;;1.30;;
61091;SDS011;46975;51.898;11.444;2022-09-01T03:25:52;2.15;;;1.27;;
61091;SDS011;46975;51.898;11.444;2022-09-01T03:28:18;1.67;;;1.58;;
61091;SDS011;46975;51.898;11.444;2022-09-01T03:30:45;2.20;;;1.60;;
61091;SDS011;46975;51.898;11.444;2022-09-01T03:33:13;3.63;;;1.35;;
61091;SDS011;46975;51.898;11.444;2022-09-01T03:35:41;6.22;;;1.50;;
61091;SDS011;46975;51.898;11.444;2022-09-01T03:38:07;2.10;;;1.80;;
61091;SDS011;46975;51.898;11.444;2022-09-01T03:43:03;9.10;;;2.13;;
61091;SDS011;46975;51.898;11.444;2022-09-01T03:45:34;4.70;;;2.10;;
61091;SDS011;46975;51.898;11.444;2022-09-01T03:48:03;4.38;;;1.75;;
61091;SDS011;46975;51.898;11.444;2022-09-01T03:50:39;6.10;;;2.03;;
61091;SDS011;46975;51.898;11.444;2022-09-01T03:53:11;2.30;;;2.10;;
61091;SDS011;46975;51.898;11.444;2022-09-01T03:55:39;2.53;;;1.70;;
61091;SDS011;46975;51.898;11.444;2022-09-01T03:58:06;5.57;;;2.70;;
61091;SDS011;46975;51.898;11.444;2022-09-01T04:00:36;3.08;;;1.90;;
61091;SDS011;46975;51.898;11.444;2022-09-01T04:03:05;2.83;;;2.63;;
61091;SDS011;46975;51.898;11.444;2022-09-01T04:05:32;7.35;;;2.35;;
61091;SDS011;46975;51.898;11.444;2022-09-01T04:08:03;4.28;;;1.77;;
61091;SDS011;46975;51.898;11.444;2022-09-01T04:10:31;1.85;;;1.70;;
61091;SDS011;46975;51.898;11.444;2022-09-01T04:12:59;7.40;;;2.17;;
61091;SDS011;46975;51.898;11.444;2022-09-01T04:15:25;5.00;;;2.05;;
61091;SDS011;46975;51.898;11.444;2022-09-01T04:17:52;2.17;;;1.95;;
61091;SDS011;46975;51.898;11.444;2022-09-01T04:20:44;3.90;;;1.60;;
61091;SDS011;46975;51.898;11.444;2022-09-01T04:23:15;4.03;;;2.00;;
61091;SDS011;46975;51.898;11.444;2022-09-01T04:25:50;2.72;;;1.90;;
61091;SDS011;46975;51.898;11.444;2022-09-01T04:28:18;4.20;;;1.80;;
61091;SDS011;46975;51.898;11.444;2022-09-01T04:30:53;6.43;;;3.38;;
61091;SDS011;46975;51.898;11.444;2022-09-01T04:33:20;3.83;;;2.50;;
61091;SDS011;46975;51.898;11.444;2022-09-01T04:35:48;4.10;;;2.03;;
61091;SDS011;46975;51.898;11.444;2022-09-01T04:38:15;6.05;;;2.20;;
61091;SDS011;46975;51.898;11.444;2022-09-01T04:40:42;3.38;;;1.80;;
61091;SDS011;46975;51.898;11.444;2022-09-01T04:43:08;2.17;;;1.70;;
61091;SDS011;46975;51.898;11.444;2022-09-01T04:45:35;1.75;;;1.65;;
61091;SDS011;46975;51.898;11.444;2022-09-01T04:48:04;5.53;;;2.50;;
61091;SDS011;46975;51.898;11.444;2022-09-01T04:50:30;3.10;;;1.60;;
61091;SDS011;46975;51.898;11.444;2022-09-01T04:52:57;5.22;;;1.83;;
61091;SDS011;46975;51.898;11.444;2022-09-01T04:55:27;6.50;;;2.00;;
61091;SDS011;46975;51.898;11.444;2022-09-01T04:57:55;3.70;;;1.65;;
61091;SDS011;46975;51.898;11.444;2022-09-01T05:00:22;3.08;;;1.40;;
61091;SDS011;46975;51.898;11.444;2022-09-01T05:02:53;3.40;;;1.60;;
61091;SDS011;46975;51.898;11.444;2022-09-01T05:05:21;4.50;;;1.73;;
61091;SDS011;46975;51.898;11.444;2022-09-01T05:07:47;2.20;;;1.98;;
61091;SDS011;46975;51.898;11.444;2022-09-01T05:10:17;4.28;;;1.80;;
61091;SDS011;46975;51.898;11.444;2022-09-01T05:12:43;6.18;;;2.05;;
61091;SDS011;46975;51.898;11.444;2022-09-01T05:15:10;4.78;;;2.03;;
61091;SDS011;46975;51.898;11.444;2022-09-01T05:17:37;4.88;;;1.92;;
61091;SDS011;46975;51.898;11.444;2022-09-01T05:20:03;4.15;;;1.85;;
61091;SDS011;46975;51.898;11.444;2022-09-01T05:22:30;4.50;;;1.92;;
61091;SDS011;46975;51.898;11.444;2022-09-01T05:24:57;3.28;;;1.60;;
61091;SDS011;46975;51.898;11.444;2022-09-01T05:27:29;2.67;;;2.25;;
61091;SDS011;46975;51.898;11.444;2022-09-01T05:29:55;4.70;;;2.35;;
61091;SDS011;46975;51.898;11.444;2022-09-01T05:32:24;3.38;;;1.63;;
61091;SDS011;46975;51.898;11.444;2022-09-01T05:34:51;2.10;;;1.80;;
61091;SDS011;46975;51.898;11.444;2022-09-01T05:37:16;1.95;;;1.70;;
61091;SDS011;46975;51.898;11.444;2022-09-01T05:39:42;3.50;;;1.80;;
61091;SDS011;46975;51.898;11.444;2022-09-01T05:42:09;4.80;;;1.88;;
61091;SDS011;46975;51.898;11.444;2022-09-01T05:44:35;2.55;;;1.60;;
61091;SDS011;46975;51.898;11.444;2022-09-01T05:47:07;4.22;;;2.00;;
61091;SDS011;46975;51.898;11.444;2022-09-01T05:49:36;4.32;;;2.08;;
61091;SDS011;46975;51.898;11.444;2022-09-01T05:52:03;6.93;;;1.88;;
61091;SDS011;46975;51.898;11.444;2022-09-01T05:54:29;2.90;;;1.85;;
61091;SDS011;46975;51.898;11.444;2022-09-01T05:56:56;3.25;;;1.83;;
61091;SDS011;46975;51.898;11.444;2022-09-01T05:59:25;5.45;;;2.15;;
61091;SDS011;46975;51.898;11.444;2022-09-01T06:01:51;4.20;;;1.65;;
61091;SDS011;46975;51.898;11.444;2022-09-01T06:04:18;5.07;;;2.45;;
61091;SDS011;46975;51.898;11.444;2022-09-01T06:06:45;5.03;;;1.70;;
61091;SDS011;46975;51.898;11.444;2022-09-01T06:09:13;4.78;;;1.83;;
61091;SDS011;46975;51.898;11.444;2022-09-01T06:14:08;5.75;;;1.73;;
61091;SDS011;46975;51.898;11.444;2022-09-01T06:16:35;2.03;;;1.35;;
61091;SDS011;46975;51.898;11.444;2022-09-01T06:19:02;2.17;;;1.50;;
61091;SDS011;46975;51.898;11.444;2022-09-01T06:21:29;5.47;;;1.38;;
61091;SDS011;46975;51.898;11.444;2022-09-01T06:23:55;3.40;;;1.20;;
61091;SDS011;46975;51.898;11.444;2022-09-01T06:26:26;3.47;;;1.65;;
61091;SDS011;46975;51.898;11.444;2022-09-01T06:28:55;1.73;;;1.20;;
61091;SDS011;46975;51.898;11.444;2022-09-01T06:31:26;1.27;;;1.17;;
61091;SDS011;46975;51.898;11.444;2022-09-01T06:33:58;1.42;;;1.02;;
61091;SDS011;46975;51.898;11.444;2022-09-01T06:36:25;2.53;;;1.10;;
61091;SDS011;46975;51.898;11.444;2022-09-01T06:38:53;2.20;;;1.60;;
61091;SDS011;46975;51.898;11.444;2022-09-01T06:41:19;3.53;;;0.90;;
61091;SDS011;46975;51.898;11.444;2022-09-01T06:43:48;1.67;;;1.10;;
61091;SDS011;46975;51.898;11.444;2022-09-01T06:46:16;0.93;;;0.75;;
61091;SDS011;46975;51.898;11.444;2022-09-01T06:48:43;1.20;;;0.90;;
61091;SDS011;46975;51.898;11.444;2022-09-01T06:53:40;2.03;;;1.15;;
61091;SDS011;46975;51.898;11.444;2022-09-01T06:56:07;2.70;;;1.05;;
61091;SDS011;46975;51.898;11.444;2022-09-01T06:58:40;5.50;;;0.93;;
61091;SDS011;46975;51.898;11.444;2022-09-01T07:01:11;2.90;;;0.75;;
61091;SDS011;46975;51.898;11.444;2022-09-01T07:03:39;5.50;;;0.70;;
61091;SDS011;46975;51.898;11.444;2022-09-01T07:06:08;1.00;;;0.73;;
61091;SDS011;46975;51.898;11.444;2022-09-01T07:08:36;0.52;;;0.52;;
61091;SDS011;46975;51.898;11.444;2022-09-01T07:11:06;7.10;;;0.80;;
61091;SDS011;46975;51.898;11.444;2022-09-01T07:13:39;1.40;;;0.50;;
61091;SDS011;46975;51.898;11.444;2022-09-01T07:16:06;2.28;;;0.57;;
61091;SDS011;46975;51.898;11.444;2022-09-01T07:18:32;1.25;;;0.60;;
61091;SDS011;46975;51.898;11.444;2022-09-01T07:20:58;3.10;;;1.08;;
61091;SDS011;46975;51.898;11.444;2022-09-01T07:23:24;2.25;;;0.40;;
61091;SDS011;46975;51.898;11.444;2022-09-01T07:25:50;1.27;;;0.47;;
61091;SDS011;46975;51.898;11.444;2022-09-01T07:28:19;1.75;;;0.57;;
61091;SDS011;46975;51.898;11.444;2022-09-01T07:30:48;1.65;;;0.28;;
61091;SDS011;46975;51.898;11.444;2022-09-01T07:33:15;2.13;;;0.70;;
61091;SDS011;46975;51.898;11.444;2022-09-01T07:35:45;1.08;;;0.38;;
61091;SDS011;46975;51.898;11.444;2022-09-01T07:38:11;1.00;;;0.40;;
61091;SDS011;46975;51.898;11.444;2022-09-01T07:40:38;1.00;;;0.52;;
61091;SDS011;46975;51.898;11.444;2022-09-01T07:43:13;1.67;;;0.68;;
61091;SDS011;46975;51.898;11.444;2022-09-01T07:45:44;1.98;;;0.40;;
61091;SDS011;46975;51.898;11.444;2022-09-01T07:48:13;1.05;;;0.82;;
61091;SDS011;46975;51.898;11.444;2022-09-01T07:50:44;1.92;;;0.45;;
61091;SDS011;46975;51.898;11.444;2022-09-01T07:53:15;2.13;;;0.65;;
61091;SDS011;46975;51.898;11.444;2022-09-01T07:55:43;2.47;;;0.55;;
61091;SDS011;46975;51.898;11.444;2022-09-01T07:58:11;1.15;;;0.30;;
61091;SDS011;46975;51.898;11.444;2022-09-01T08:00:40;2.28;;;0.73;;
61091;SDS011;46975;51.898;11.444;2022-09-01T08:03:10;1.00;;;0.50;;
61091;SDS011;46975;51.898;11.444;2022-09-01T08:05:37;2.90;;;0.30;;
61091;SDS011;46975;51.898;11.444;2022-09-01T08:08:03;0.65;;;0.28;;
61091;SDS011;46975;51.898;11.444;2022-09-01T08:10:29;1.55;;;0.40;;
61091;SDS011;46975;51.898;11.444;2022-09-01T08:12:55;0.38;;;0.30;;
61091;SDS011;46975;51.898;11.444;2022-09-01T08:15:21;2.03;;;0.35;;
61091;SDS011;46975;51.898;11.444;2022-09-01T08:17:47;1.55;;;0.40;;
61091;SDS011;46975;51.898;11.444;2022-09-01T08:20:12;0.45;;;0.22;;
61091;SDS011;46975;51.898;11.444;2022-09-01T08:22:38;1.48;;;0.40;;
61091;SDS011;46975;51.898;11.444;2022-09-01T08:25:08;0.90;;;0.45;;
61091;SDS011;46975;51.898;11.444;2022-09-01T08:27:35;0.75;;;0.40;;
61091;SDS011;46975;51.898;11.444;2022-09-01T08:32:29;1.13;;;0.45;;
61091;SDS011;46975;51.898;11.444;2022-09-01T08:34:56;1.67;;;0.30;;
61091;SDS011;46975;51.898;11.444;2022-09-01T08:37:22;0.40;;;0.30;;
61091;SDS011;46975;51.898;11.444;2022-09-01T08:39:49;2.00;;;0.50;;
61091;SDS011;46975;51.898;11.444;2022-09-01T08:45:24;1.73;;;0.52;;
61091;SDS011;46975;51.898;11.444;2022-09-01T08:47:56;0.40;;;0.38;;
61091;SDS011;46975;51.898;11.444;2022-09-01T08:50:25;1.95;;;0.50;;
61091;SDS011;46975;51.898;11.444;2022-09-01T08:52:54;0.35;;;0.30;;
61091;SDS011;46975;51.898;11.444;2022-09-01T08:55:34;4.15;;;0.30;;
61091;SDS011;46975;51.898;11.444;2022-09-01T08:58:04;8.80;;;0.75;;
61091;SDS011;46975;51.898;11.444;2022-09-01T09:00:33;0.35;;;0.32;;
61091;SDS011;46975;51.898;11.444;2022-09-01T09:06:02;0.25;;;0.25;;
61091;SDS011;46975;51.898;11.444;2022-09-01T09:16:41;0.28;;;0.20;;
61091;SDS011;46975;51.898;11.444;2022-09-01T09:21:48;0.40;;;0.30;;
61091;SDS011;46975;51.898;11.444;2022-09-01T09:24:18;0.33;;;0.33;;
61091;SDS011;46975;51.898;11.444;2022-09-01T09:27:14;2.20;;;0.38;;
61091;SDS011;46975;51.898;11.444;2022-09-01T09:29:50;0.30;;;0.28;;
61091;SDS011;46975;51.898;11.444;2022-09-01T09:32:18;4.97;;;0.35;;
61091;SDS011;46975;51.898;11.444;2022-09-01T09:34:45;0.98;;;0.50;;
61091;SDS011;46975;51.898;11.444;2022-09-01T09:37:24;2.40;;;1.17;;
61091;SDS011;46975;51.898;11.444;2022-09-01T09:40:12;3.20;;;0.40;;
61091;SDS011;46975;51.898;11.444;2022-09-01T09:45:22;0.22;;;0.20;;
61091;SDS011;46975;51.898;11.444;2022-09-01T09:48:09;0.82;;;0.47;;
61091;SDS011;46975;51.898;11.444;2022-09-01T09:50:54;0.60;;;0.40;;
61091;SDS011;46975;51.898;11.444;2022-09-01T09:55:59;0.65;;;0.40;;
61091;SDS011;46975;51.898;11.444;2022-09-01T09:58:33;0.50;;;0.30;;
61091;SDS011;46975;51.898;11.444;2022-09-01T10:01:05;0.30;;;0.30;;
61091;SDS011;46975;51.898;11.444;2022-09-01T10:03:42;0.40;;;0.20;;
61091;SDS011;46975;51.898;11.444;2022-09-01T10:06:28;1.13;;;0.47;;
61091;SDS011;46975;51.898;11.444;2022-09-01T10:09:07;2.08;;;0.45;;
61091;SDS011;46975;51.898;11.444;2022-09-01T10:11:39;1.17;;;0.30;;
61091;SDS011;46975;51.898;11.444;2022-09-01T10:16:35;0.30;;;0.20;;
61091;SDS011;46975;51.898;11.444;2022-09-01T10:19:02;0.90;;;0.40;;
61091;SDS011;46975;51.898;11.444;2022-09-01T10:23:59;4.15;;;0.50;;
61091;SDS011;46975;51.898;11.444;2022-09-01T10:26:43;1.10;;;0.35;;
61091;SDS011;46975;51.898;11.444;2022-09-01T10:29:16;1.92;;;0.40;;
61091;SDS011;46975;51.898;11.444;2022-09-01T10:31:47;2.65;;;0.32;;
61091;SDS011;46975;51.898;11.444;2022-09-01T10:34:14;2.22;;;0.40;;
61091;SDS011;46975;51.898;11.444;2022-09-01T10:36:43;0.68;;;0.30;;
61091;SDS011;46975;51.898;11.444;2022-09-01T10:39:11;1.10;;;0.40;;
61091;SDS011;46975;51.898;11.444;2022-09-01T10:44:10;3.25;;;0.32;;
61091;SDS011;46975;51.898;11.444;2022-09-01T10:46:44;2.38;;;0.52;;
61091;SDS011;46975;51.898;11.444;2022-09-01T10:49:18;1.85;;;0.22;;
61091;SDS011;46975;51.898;11.444;2022-09-01T10:51:53;1.45;;;0.25;;
61091;SDS011;46975;51.898;11.444;2022-09-01T10:57:11;0.40;;;0.35;;
61091;SDS011;46975;51.898;11.444;2022-09-01T11:10:50;0.90;;;0.38;;
61091;SDS011;46975;51.898;11.444;2022-09-01T11:13:45;2.97;;;0.25;;
61091;SDS011;46975;51.898;11.444;2022-09-01T11:19:23;2.03;;;0.28;;
61091;SDS011;46975;51.898;11.444;2022-09-01T11:27:04;1.55;;;0.40;;
61091;SDS011;46975;51.898;11.444;2022-09-01T11:32:16;2.17;;;0.25;;
61091;SDS011;46975;51.898;11.444;2022-09-01T11:34:43;0.85;;;0.40;;
61091;SDS011;46975;51.898;11.444;2022-09-01T11:37:13;1.27;;;0.32;;
61091;SDS011;46975;51.898;11.444;2022-09-01T11:39:42;0.82;;;0.30;;
61091;SDS011;46975;51.898;11.444;2022-09-01T11:42:26;6.22;;;0.40;;
61091;SDS011;46975;51.898;11.444;2022-09-01T11:45:04;1.65;;;0.57;;
61091;SDS011;46975;51.898;11.444;2022-09-01T11:50:06;0.98;;;0.30;;
61091;SDS011;46975;51.898;11.444;2022-09-01T11:52:41;1.13;;;0.43;;
61091;SDS011;46975;51.898;11.444;2022-09-01T11:55:15;0.50;;;0.30;;
61091;SDS011;46975;51.898;11.444;2022-09-01T11:57:59;0.32;;;0.32;;
61091;SDS011;46975;51.898;11.444;2022-09-01T12:00:30;0.85;;;0.20;;
61091;SDS011;46975;51.898;11.444;2022-09-01T12:03:02;4.07;;;0.57;;
61091;SDS011;46975;51.898;11.444;2022-09-01T12:05:52;1.08;;;0.50;;
61091;SDS011;46975;51.898;11.444;2022-09-01T12:08:29;1.08;;;0.40;;
61091;SDS011;46975;51.898;11.444;2022-09-01T12:11:08;2.05;;;0.22;;
61091;SDS011;46975;51.898;11.444;2022-09-01T12:13:36;0.68;;;0.30;;
61091;SDS011;46975;51.898;11.444;2022-09-01T12:16:05;2.13;;;0.30;;
61091;SDS011;46975;51.898;11.444;2022-09-01T12:18:34;2.20;;;0.30;;
61091;SDS011;46975;51.898;11.444;2022-09-01T12:21:05;1.00;;;0.30;;
61091;SDS011;46975;51.898;11.444;2022-09-01T12:23:39;0.20;;;0.20;;
61091;SDS011;46975;51.898;11.444;2022-09-01T12:26:08;2.65;;;0.47;;
61091;SDS011;46975;51.898;11.444;2022-09-01T12:28:47;0.32;;;0.30;;
61091;SDS011;46975;51.898;11.444;2022-09-01T12:31:18;0.65;;;0.35;;
61091;SDS011;46975;51.898;11.444;2022-09-01T12:33:47;0.85;;;0.38;;
61091;SDS011;46975;51.898;11.444;2022-09-01T12:36:25;3.55;;;0.40;;
61091;SDS011;46975;51.898;11.444;2022-09-01T12:38:51;3.83;;;0.43;;
61091;SDS011;46975;51.898;11.444;2022-09-01T12:41:59;1.75;;;0.40;;
61091;SDS011;46975;51.898;11.444;2022-09-01T12:44:27;2.10;;;0.60;;
61091;SDS011;46975;51.898;11.444;2022-09-01T12:46:56;2.60;;;0.30;;
61091;SDS011;46975;51.898;11.444;2022-09-01T12:49:34;2.72;;;0.38;;
61091;SDS011;46975;51.898;11.444;2022-09-01T12:54:40;0.60;;;0.20;;
61091;SDS011;46975;51.898;11.444;2022-09-01T12:57:06;2.28;;;0.35;;
61091;SDS011;46975;51.898;11.444;2022-09-01T12:59:32;1.90;;;0.40;;
61091;SDS011;46975;51.898;11.444;2022-09-01T13:02:24;1.58;;;0.30;;
61091;SDS011;46975;51.898;11.444;2022-09-01T13:05:19;2.92;;;0.30;;
61091;SDS011;46975;51.898;11.444;2022-09-01T13:07:45;0.70;;;0.47;;
61091;SDS011;46975;51.898;11.444;2022-09-01T13:10:11;3.45;;;0.68;;
61091;SDS011;46975;51.898;11.444;2022-09-01T13:12:43;0.85;;;0.30;;
61091;SDS011;46975;51.898;11.444;2022-09-01T13:15:09;0.80;;;0.22;;
61091;SDS011;46975;51.898;11.444;2022-09-01T13:17:35;3.53;;;0.57;;
61091;SDS011;46975;51.898;11.444;2022-09-01T13:20:02;1.20;;;0.20;;
61091;SDS011;46975;51.898;11.444;2022-09-01T13:22:29;4.90;;;0.55;;
61091;SDS011;46975;51.898;11.444;2022-09-01T13:24:55;0.65;;;0.30;;
61091;SDS011;46975;51.898;11.444;2022-09-01T13:27:21;2.08;;;0.40;;
61091;SDS011;46975;51.898;11.444;2022-09-01T13:29:47;3.63;;;0.57;;
61091;SDS011;46975;51.898;11.444;2022-09-01T13:32:14;10.88;;;2.53;;
61091;SDS011;46975;51.898;11.444;2022-09-01T13:34:41;0.80;;;0.30;;
61091;SDS011;46975;51.898;11.444;2022-09-01T13:37:07;0.55;;;0.30;;
61091;SDS011;46975;51.898;11.444;2022-09-01T13:39:32;1.02;;;0.22;;
61091;SDS011;46975;51.898;11.444;2022-09-01T13:41:58;3.03;;;0.38;;
61091;SDS011;46975;51.898;11.444;2022-09-01T13:44:23;0.30;;;0.22;;
61091;SDS011;46975;51.898;11.444;2022-09-01T13:46:49;1.55;;;0.32;;
61091;SDS011;46975;51.898;11.444;2022-09-01T13:49:15;0.40;;;0.20;;
61091;SDS011;46975;51.898;11.444;2022-09-01T13:51:40;1.23;;;0.20;;
61091;SDS011;46975;51.898;11.444;2022-09-01T13:54:06;2.25;;;0.40;;
61091;SDS011;46975;51.898;11.444;2022-09-01T13:56:32;0.80;;;0.30;;
61091;SDS011;46975;51.898;11.444;2022-09-01T13:58:58;1.17;;;0.32;;
61091;SDS011;46975;51.898;11.444;2022-09-01T14:01:24;1.02;;;0.30;;
61091;SDS011;46975;51.898;11.444;2022-09-01T14:03:50;0.50;;;0.30;;
61091;SDS011;46975;51.898;11.444;2022-09-01T14:06:16;1.80;;;0.40;;
61091;SDS011;46975;51.898;11.444;2022-09-01T14:08:41;0.88;;;0.30;;
61091;SDS011;46975;51.898;11.444;2022-09-01T14:11:07;0.88;;;0.50;;
61091;SDS011;46975;51.898;11.444;2022-09-01T14:13:33;0.95;;;0.40;;
61091;SDS011;46975;51.898;11.444;2022-09-01T14:15:59;0.60;;;0.30;;
61091;SDS011;46975;51.898;11.444;2022-09-01T14:18:25;1.08;;;0.50;;
61091;SDS011;46975;51.898;11.444;2022-09-01T14:20:56;0.52;;;0.30;;
61091;SDS011;46975;51.898;11.444;2022-09-01T14:23:25;2.60;;;0.70;;
61091;SDS011;46975;51.898;11.444;2022-09-01T14:25:51;3.60;;;0.30;;
61091;SDS011;46975;51.898;11.444;2022-09-01T14:28:17;1.83;;;0.40;;
61091;SDS011;46975;51.898;11.444;2022-09-01T14:30:44;0.80;;;0.40;;
61091;SDS011;46975;51.898;11.444;2022-09-01T14:33:10;1.30;;;0.52;;
61091;SDS011;46975;51.898;11.444;2022-09-01T14:35:37;1.73;;;0.40;;
61091;SDS011;46975;51.898;11.444;2022-09-01T14:38:05;1.25;;;0.45;;
61091;SDS011;46975;51.898;11.444;2022-09-01T14:40:32;1.73;;;0.40;;
61091;SDS011;46975;51.898;11.444;2022-09-01T14:43:00;3.22;;;0.32;;
61091;SDS011;46975;51.898;11.444;2022-09-01T14:45:26;0.80;;;0.45;;
61091;SDS011;46975;51.898;11.444;2022-09-01T14:47:55;6.45;;;0.47;;
61091;SDS011;46975;51.898;11.444;2022-09-01T14:50:23;1.45;;;0.40;;
61091;SDS011;46975;51.898;11.444;2022-09-01T14:52:53;0.60;;;0.60;;
61091;SDS011;46975;51.898;11.444;2022-09-01T14:55:21;2.90;;;0.60;;
61091;SDS011;46975;51.898;11.444;2022-09-01T14:57:47;1.65;;;0.50;;
61091;SDS011;46975;51.898;11.444;2022-09-01T15:00:14;0.60;;;0.25;;
61091;SDS011;46975;51.898;11.444;2022-09-01T15:02:41;0.47;;;0.30;;
61091;SDS011;46975;51.898;11.444;2022-09-01T15:05:08;0.70;;;0.43;;
61091;SDS011;46975;51.898;11.444;2022-09-01T15:07:34;1.75;;;0.28;;
61091;SDS011;46975;51.898;11.444;2022-09-01T15:10:00;0.47;;;0.20;;
61091;SDS011;46975;51.898;11.444;2022-09-01T15:12:27;0.30;;;0.30;;
61091;SDS011;46975;51.898;11.444;2022-09-01T15:14:59;0.90;;;0.45;;
61091;SDS011;46975;51.898;11.444;2022-09-01T15:17:28;1.63;;;0.60;;
61091;SDS011;46975;51.898;11.444;2022-09-01T15:19:54;2.88;;;0.47;;
61091;SDS011;46975;51.898;11.444;2022-09-01T15:22:19;2.28;;;1.10;;
61091;SDS011;46975;51.898;11.444;2022-09-01T15:24:45;0.40;;;0.20;;
61091;SDS011;46975;51.898;11.444;2022-09-01T15:27:11;0.38;;;0.38;;
61091;SDS011;46975;51.898;11.444;2022-09-01T15:29:37;0.38;;;0.30;;
61091;SDS011;46975;51.898;11.444;2022-09-01T15:32:10;2.15;;;0.40;;
61091;SDS011;46975;51.898;11.444;2022-09-01T15:34:37;1.85;;;0.47;;
61091;SDS011;46975;51.898;11.444;2022-09-01T15:37:03;0.43;;;0.30;;
61091;SDS011;46975;51.898;11.444;2022-09-01T15:39:31;1.95;;;0.47;;
61091;SDS011;46975;51.898;11.444;2022-09-01T15:41:57;3.10;;;1.05;;
61091;SDS011;46975;51.898;11.444;2022-09-01T15:44:23;0.47;;;0.40;;
61091;SDS011;46975;51.898;11.444;2022-09-01T15:46:48;0.30;;;0.30;;
61091;SDS011;46975;51.898;11.444;2022-09-01T15:49:14;0.50;;;0.50;;
61091;SDS011;46975;51.898;11.444;2022-09-01T15:51:42;0.95;;;0.40;;
61091;SDS011;46975;51.898;11.444;2022-09-01T15:54:10;0.57;;;0.35;;
61091;SDS011;46975;51.898;11.444;2022-09-01T15:56:37;0.30;;;0.30;;
61091;SDS011;46975;51.898;11.444;2022-09-01T15:59:04;2.67;;;0.45;;
61091;SDS011;46975;51.898;11.444;2022-09-01T16:01:32;4.68;;;0.55;;
61091;SDS011;46975;51.898;11.444;2022-09-01T16:04:01;1.42;;;0.55;;